createdAt,value
2024-02-12T00:01:56.478Z,11.50
2024-02-12T00:04:28.131Z,14.00
2024-02-12T00:06:58.518Z,12.20
2024-02-12T00:09:28.322Z,14.60
2024-02-12T00:11:58.336Z,12.20
2024-02-12T00:14:28.254Z,13.60
2024-02-12T00:17:06.161Z,13.40
2024-02-12T00:19:39.381Z,12.00
2024-02-12T00:22:11.558Z,12.40
2024-02-12T00:24:41.800Z,11.30
2024-02-12T00:27:12.547Z,12.00
2024-02-12T00:29:42.303Z,11.10
2024-02-12T00:32:12.401Z,13.00
2024-02-12T00:34:42.879Z,12.00
2024-02-12T00:37:14.862Z,10.70
2024-02-12T00:39:44.709Z,11.60
2024-02-12T00:42:14.532Z,12.80
2024-02-12T00:44:44.412Z,11.30
2024-02-12T00:47:14.281Z,16.20
2024-02-12T00:49:45.169Z,11.60
2024-02-12T00:52:19.465Z,13.20
2024-02-12T00:54:49.231Z,10.20
2024-02-12T00:57:22.062Z,12.60
2024-02-12T00:59:53.059Z,14.40
2024-02-12T01:02:23.763Z,12.80
2024-02-12T01:04:55.711Z,10.50
2024-02-12T01:07:26.302Z,13.40
2024-02-12T01:09:58.463Z,12.60
2024-02-12T01:12:28.240Z,11.20
2024-02-12T01:15:01.375Z,12.10
2024-02-12T01:17:33.070Z,10.70
2024-02-12T01:20:03.104Z,14.00
2024-02-12T01:22:34.509Z,12.70
2024-02-12T01:25:05.853Z,12.60
2024-02-12T01:27:35.603Z,11.80
2024-02-12T01:30:07.087Z,15.00
2024-02-12T01:32:36.884Z,14.30
2024-02-12T01:35:07.767Z,10.50
2024-02-12T01:37:37.711Z,12.00
2024-02-12T01:40:10.340Z,17.40
2024-02-12T01:42:40.058Z,12.20
2024-02-12T01:45:15.119Z,13.60
2024-02-12T01:47:52.247Z,14.00
2024-02-12T01:50:22.337Z,11.40
2024-02-12T01:52:53.614Z,14.10
2024-02-12T01:55:25.131Z,11.50
2024-02-12T01:57:55.670Z,12.30
2024-02-12T02:00:28.666Z,14.60
2024-02-12T02:02:59.196Z,14.20
2024-02-12T02:05:29.205Z,13.70
2024-02-12T02:08:02.080Z,12.70
2024-02-12T02:10:33.623Z,14.30
2024-02-12T02:13:04.740Z,11.90
2024-02-12T02:15:37.391Z,14.60
2024-02-12T02:18:12.628Z,15.50
2024-02-12T02:20:42.576Z,15.40
2024-02-12T02:23:12.730Z,15.70
2024-02-12T02:25:47.090Z,14.00
2024-02-12T02:28:16.992Z,13.80
2024-02-12T02:30:49.715Z,14.00
2024-02-12T02:33:19.773Z,14.70
2024-02-12T02:35:49.894Z,14.10
2024-02-12T02:38:19.938Z,13.40
2024-02-12T02:40:52.954Z,14.90
2024-02-12T02:43:22.788Z,13.20
2024-02-12T02:45:52.810Z,15.60
2024-02-12T02:48:28.276Z,12.60
2024-02-12T02:50:59.102Z,14.70
2024-02-12T02:53:29.010Z,11.90
2024-02-12T02:55:59.219Z,13.60
2024-02-12T02:58:28.976Z,15.00
2024-02-12T03:00:59.163Z,13.20
2024-02-12T03:03:29.526Z,15.90
2024-02-12T03:06:00.354Z,16.00
2024-02-12T03:08:31.441Z,13.90
2024-02-12T03:11:02.856Z,15.40
2024-02-12T03:13:32.961Z,15.50
2024-02-12T03:16:02.810Z,13.10
2024-02-12T03:18:32.721Z,15.70
2024-02-12T03:21:03.384Z,14.10
2024-02-12T03:23:35.354Z,13.90
2024-02-12T03:26:10.187Z,15.50
2024-02-12T03:31:08.700Z,13.40
2024-02-12T03:33:38.713Z,15.90
2024-02-12T03:36:10.067Z,13.00
2024-02-12T03:38:42.468Z,16.10
2024-02-12T03:41:19.984Z,15.40
2024-02-12T03:43:54.100Z,13.00
2024-02-12T03:46:32.440Z,13.30
2024-02-12T03:49:23.246Z,10.90
2024-02-12T03:52:11.991Z,13.20
2024-02-12T03:55:02.408Z,13.10
2024-02-12T03:57:51.667Z,16.00
2024-02-12T04:00:24.063Z,10.70
2024-02-12T04:02:56.960Z,15.60
2024-02-12T04:05:28.468Z,13.50
2024-02-12T04:07:58.531Z,12.90
2024-02-12T04:10:29.526Z,9.60
2024-02-12T04:13:02.428Z,15.70
2024-02-12T04:15:32.258Z,13.80
2024-02-12T04:18:02.050Z,12.90
2024-02-12T04:20:34.810Z,14.70
2024-02-12T04:23:08.619Z,11.70
2024-02-12T04:25:40.994Z,11.70
2024-02-12T04:28:14.729Z,11.40
2024-02-12T04:30:48.703Z,11.30
2024-02-12T04:33:18.555Z,12.20
2024-02-12T04:35:50.893Z,10.40
2024-02-12T04:38:22.415Z,11.80
2024-02-12T04:40:52.357Z,8.10
2024-02-12T04:43:22.355Z,7.80
2024-02-12T04:45:55.589Z,7.10
2024-02-12T04:48:26.094Z,6.90
2024-02-12T04:50:56.673Z,7.20
2024-02-12T04:53:27.491Z,7.20
2024-02-12T04:55:57.428Z,9.30
2024-02-12T04:58:27.604Z,5.70
2024-02-12T05:00:59.748Z,10.20
2024-02-12T05:03:35.053Z,6.90
2024-02-12T05:06:08.173Z,7.60
2024-02-12T05:08:38.433Z,6.30
2024-02-12T05:11:08.306Z,8.80
2024-02-12T05:13:41.516Z,8.10
2024-02-12T05:16:11.349Z,8.70
2024-02-12T05:19:00.653Z,8.90
2024-02-12T05:21:49.464Z,7.00
2024-02-12T05:24:23.091Z,7.30
2024-02-12T05:26:52.923Z,8.10
2024-02-12T05:29:22.749Z,9.60
2024-02-12T05:31:52.933Z,9.50
2024-02-12T05:34:24.543Z,7.60
2024-02-12T05:36:55.180Z,9.70
2024-02-12T05:39:27.155Z,9.60
2024-02-12T05:41:57.013Z,9.50
2024-02-12T05:44:26.978Z,9.50
2024-02-12T05:46:56.966Z,8.30
2024-02-12T05:49:27.392Z,10.70
2024-02-12T05:51:58.254Z,9.60
2024-02-12T05:54:28.688Z,11.50
2024-02-12T05:56:59.014Z,12.70
2024-02-12T05:59:28.837Z,11.40
2024-02-12T06:01:58.607Z,7.50
2024-02-12T06:04:28.356Z,8.30
2024-02-12T06:06:58.368Z,8.70
2024-02-12T06:09:31.551Z,10.10
2024-02-12T06:12:01.348Z,11.50
2024-02-12T06:14:31.613Z,12.60
2024-02-12T06:17:01.990Z,10.40
2024-02-12T06:19:31.822Z,9.00
2024-02-12T06:22:02.447Z,12.30
2024-02-12T06:24:32.979Z,9.90
2024-02-12T06:27:02.883Z,11.50
2024-02-12T06:29:32.785Z,10.20
2024-02-12T06:32:02.720Z,11.90
2024-02-12T06:34:34.709Z,12.10
2024-02-12T06:37:04.786Z,8.40
2024-02-12T06:39:34.577Z,9.00
2024-02-12T06:42:07.613Z,8.20
2024-02-12T06:44:37.740Z,10.00
2024-02-12T06:47:11.015Z,11.70
2024-02-12T06:49:44.191Z,10.70
2024-02-12T06:52:17.435Z,11.10
2024-02-12T06:54:49.137Z,8.70
2024-02-12T06:57:19.237Z,8.70
2024-02-12T06:59:49.152Z,6.40
2024-02-12T07:02:21.231Z,9.80
2024-02-12T07:04:51.104Z,9.30
2024-02-12T07:07:21.055Z,8.10
2024-02-12T07:09:55.307Z,7.70
2024-02-12T07:12:25.082Z,8.00
2024-02-12T07:14:55.057Z,9.20
2024-02-12T07:17:27.498Z,11.10
2024-02-12T07:20:00.248Z,7.10
2024-02-12T07:22:32.984Z,10.10
2024-02-12T07:25:06.394Z,7.30
2024-02-12T07:27:38.010Z,9.70
2024-02-12T07:30:10.159Z,9.30
2024-02-12T07:32:42.658Z,8.90
2024-02-12T07:35:12.821Z,7.10
2024-02-12T07:37:45.462Z,13.60
2024-02-12T07:40:18.557Z,5.80
2024-02-12T07:42:49.246Z,10.00
2024-02-12T07:45:19.094Z,7.10
2024-02-12T07:47:51.733Z,8.60
2024-02-12T07:50:21.926Z,8.80
2024-02-12T07:52:54.609Z,9.60
2024-02-12T07:55:25.768Z,9.40
2024-02-12T07:57:59.622Z,11.30
2024-02-12T08:00:29.782Z,9.50
2024-02-12T08:03:02.150Z,8.70
2024-02-12T08:05:36.321Z,9.90
2024-02-12T08:08:09.228Z,8.30
2024-02-12T08:10:39.177Z,7.30
2024-02-12T08:13:09.398Z,8.10
2024-02-12T08:15:40.213Z,11.60
2024-02-12T08:18:10.275Z,8.40
2024-02-12T08:20:40.676Z,10.20
2024-02-12T08:23:10.989Z,9.70
2024-02-12T08:25:41.036Z,10.10
2024-02-12T08:28:11.002Z,8.50
2024-02-12T08:30:42.941Z,7.70
2024-02-12T08:33:15.248Z,11.20
2024-02-12T08:35:45.172Z,8.10
2024-02-12T08:38:15.153Z,8.80
2024-02-12T08:40:45.298Z,10.10
2024-02-12T08:43:16.321Z,16.00
2024-02-12T08:45:49.130Z,10.30
2024-02-12T08:48:19.015Z,10.90
2024-02-12T08:50:51.657Z,7.90
2024-02-12T08:53:23.642Z,6.50
2024-02-12T08:55:56.300Z,7.80
2024-02-12T08:58:26.111Z,5.40
2024-02-12T09:00:58.327Z,9.60
2024-02-12T09:03:28.143Z,9.80
2024-02-12T09:05:57.999Z,11.20
2024-02-12T09:08:27.774Z,9.00
2024-02-12T09:11:00.412Z,6.60
2024-02-12T09:13:32.420Z,8.90
2024-02-12T09:16:02.203Z,8.40
2024-02-12T09:18:32.145Z,6.30
2024-02-12T09:21:04.080Z,8.30
2024-02-12T09:23:34.474Z,8.60
2024-02-12T09:26:07.103Z,9.20
2024-02-12T09:28:39.625Z,8.40
2024-02-12T09:31:09.976Z,8.70
2024-02-12T09:33:39.840Z,8.10
2024-02-12T09:36:10.258Z,8.50
2024-02-12T09:38:40.170Z,8.80
2024-02-12T09:41:12.390Z,11.70
2024-02-12T09:43:47.773Z,9.00
2024-02-12T09:46:20.191Z,8.70
2024-02-12T09:48:50.464Z,8.70
2024-02-12T09:51:25.035Z,8.70
2024-02-12T09:53:56.991Z,9.70
2024-02-12T09:56:27.611Z,7.40
2024-02-12T09:58:57.893Z,6.00
2024-02-12T10:01:28.982Z,10.80
2024-02-12T10:03:59.368Z,4.90
2024-02-12T10:06:31.775Z,8.50
2024-02-12T10:09:09.515Z,6.20
2024-02-12T10:11:41.059Z,6.20
2024-02-12T10:14:13.069Z,5.70
2024-02-12T10:16:43.790Z,8.10
2024-02-12T10:19:13.618Z,9.20
2024-02-12T10:21:43.419Z,6.80
2024-02-12T10:24:13.563Z,7.60
2024-02-12T10:26:44.057Z,6.10
2024-02-12T10:29:15.233Z,6.60
2024-02-12T10:31:45.594Z,8.30
2024-02-12T10:34:21.661Z,8.50
2024-02-12T10:36:58.895Z,7.90
2024-02-12T10:39:31.785Z,5.20
2024-02-12T10:42:27.972Z,8.20
2024-02-12T10:45:03.764Z,7.40
2024-02-12T10:47:36.990Z,8.80
2024-02-12T10:50:14.738Z,6.70
2024-02-12T10:52:47.767Z,6.90
2024-02-12T10:55:18.127Z,6.90
2024-02-12T10:57:48.361Z,5.80
2024-02-12T11:00:29.590Z,7.60
2024-02-12T11:05:31.907Z,10.50
2024-02-12T11:08:09.817Z,6.60
2024-02-12T11:10:45.107Z,5.10
2024-02-12T11:13:20.718Z,4.10
2024-02-12T11:15:54.396Z,3.30
2024-02-12T11:18:34.579Z,7.40
2024-02-12T11:21:09.649Z,10.90
2024-02-12T11:26:16.085Z,7.10
2024-02-12T11:28:54.335Z,6.60
2024-02-12T11:31:30.095Z,9.10
2024-02-12T11:34:03.432Z,8.90
2024-02-12T11:36:34.492Z,8.30
2024-02-12T11:41:39.251Z,6.60
2024-02-12T11:44:09.470Z,8.00
2024-02-12T11:46:42.189Z,8.30
2024-02-12T11:49:13.998Z,7.40
2024-02-12T11:51:43.790Z,7.70
2024-02-12T11:54:15.263Z,9.80
2024-02-12T11:56:46.190Z,6.10
2024-02-12T11:59:19.897Z,5.60
2024-02-12T12:01:50.172Z,7.40
2024-02-12T12:04:20.229Z,6.30
2024-02-12T12:06:52.171Z,6.20
2024-02-12T12:09:25.114Z,5.80
2024-02-12T12:11:55.307Z,5.60
2024-02-12T12:14:26.960Z,5.60
2024-02-12T12:17:28.347Z,4.40
2024-02-12T12:19:48.349Z,4.40
2024-02-12T12:22:21.887Z,7.00
2024-02-12T12:24:54.850Z,8.20
2024-02-12T12:27:28.354Z,9.00
2024-02-12T12:30:14.220Z,8.10
2024-02-12T12:32:44.954Z,7.90
2024-02-12T12:35:17.855Z,10.80
2024-02-12T12:37:48.222Z,5.20
2024-02-12T12:40:21.274Z,7.00
2024-02-12T12:42:54.265Z,4.80
2024-02-12T12:45:26.078Z,6.10
2024-02-12T12:47:56.137Z,4.80
2024-02-12T12:50:27.791Z,5.30
2024-02-12T12:52:57.804Z,5.30
2024-02-12T12:55:30.546Z,8.90
2024-02-12T12:58:03.328Z,6.10
2024-02-12T13:00:37.382Z,6.40
2024-02-12T13:03:09.926Z,5.20
2024-02-12T13:05:42.660Z,5.00
2024-02-12T13:08:19.682Z,5.30
2024-02-12T13:10:52.775Z,6.40
2024-02-12T13:13:25.014Z,7.50
2024-02-12T13:15:54.775Z,6.20
2024-02-12T13:18:31.306Z,5.30
2024-02-12T13:21:03.752Z,6.40
2024-02-12T13:23:33.741Z,6.70
2024-02-12T13:26:13.487Z,5.70
2024-02-12T13:28:43.945Z,3.20
2024-02-12T13:31:16.013Z,4.50
2024-02-12T13:33:46.284Z,5.60
2024-02-12T13:36:16.705Z,3.80
2024-02-12T13:38:47.292Z,6.10
2024-02-12T13:41:17.687Z,6.10
2024-02-12T13:43:49.541Z,4.30
2024-02-12T13:46:36.564Z,3.60
2024-02-12T13:49:14.164Z,5.80
2024-02-12T13:51:48.100Z,4.00
2024-02-12T13:54:17.965Z,4.60
2024-02-12T13:56:50.044Z,4.90
2024-02-12T13:59:19.854Z,2.40
2024-02-12T14:01:55.898Z,2.30
2024-02-12T14:04:30.710Z,3.50
2024-02-12T14:07:00.766Z,4.10
2024-02-12T14:09:31.150Z,2.20
2024-02-12T14:12:01.606Z,3.40
2024-02-12T14:14:31.415Z,4.30
2024-02-12T14:17:01.325Z,3.50
2024-02-12T14:19:31.334Z,2.40
2024-02-12T14:22:01.259Z,4.50
2024-02-12T14:24:33.308Z,3.00
2024-02-12T14:27:07.539Z,4.20
2024-02-12T14:29:39.195Z,3.00
2024-02-12T14:32:38.283Z,4.00
2024-02-12T14:34:59.315Z,5.50
2024-02-12T14:37:29.761Z,4.90
2024-02-12T14:40:02.574Z,4.90
2024-02-12T14:42:34.939Z,3.60
2024-02-12T14:45:06.800Z,3.10
2024-02-12T14:47:42.424Z,3.60
2024-02-12T14:50:20.009Z,2.80
2024-02-12T14:52:54.542Z,2.00
2024-02-12T14:55:24.350Z,1.90
2024-02-12T14:57:58.983Z,3.80
2024-02-12T15:00:29.371Z,4.20
2024-02-12T15:03:01.658Z,2.80
2024-02-12T15:05:31.481Z,4.00
2024-02-12T15:08:01.550Z,3.60
2024-02-12T15:10:36.325Z,3.60
2024-02-12T15:13:06.580Z,3.00
2024-02-12T15:15:40.992Z,3.50
2024-02-12T15:18:13.795Z,1.70
2024-02-12T15:20:47.439Z,2.90
2024-02-12T15:23:17.807Z,3.10
2024-02-12T15:25:47.664Z,2.50
2024-02-12T15:28:18.038Z,2.60
2024-02-12T15:30:49.785Z,3.00
2024-02-12T15:33:20.333Z,2.50
2024-02-12T15:35:51.889Z,3.70
2024-02-12T15:38:23.529Z,3.40
2024-02-12T15:40:55.764Z,6.80
2024-02-12T15:43:26.817Z,4.10
2024-02-12T15:45:59.533Z,1.50
2024-02-12T15:48:29.642Z,2.20
2024-02-12T15:51:01.159Z,3.60
2024-02-12T15:53:31.526Z,2.60
2024-02-12T15:56:06.097Z,4.20
2024-02-12T15:58:38.379Z,3.80
2024-02-12T16:01:09.877Z,5.00
2024-02-12T16:03:42.515Z,4.50
2024-02-12T16:06:16.094Z,3.70
2024-02-12T16:08:46.349Z,5.80
2024-02-12T16:11:19.837Z,2.10
2024-02-12T16:13:53.653Z,3.70
2024-02-12T16:16:27.866Z,3.40
2024-02-12T16:19:01.529Z,4.20
2024-02-12T16:21:33.810Z,2.30
2024-02-12T16:24:03.846Z,5.10
2024-02-12T16:26:34.078Z,7.50
2024-02-12T16:29:06.482Z,4.50
2024-02-12T16:31:40.970Z,6.80
2024-02-12T16:34:11.338Z,4.60
2024-02-12T16:36:43.854Z,3.40
2024-02-12T16:39:15.567Z,4.70
2024-02-12T16:41:45.993Z,7.00
2024-02-12T16:44:15.918Z,4.90
2024-02-12T16:46:46.591Z,6.70
2024-02-12T16:49:16.838Z,3.70
2024-02-12T16:51:51.011Z,4.00
2024-02-12T16:54:21.132Z,5.50
2024-02-12T16:56:53.716Z,7.20
2024-02-12T16:59:26.133Z,6.30
2024-02-12T17:01:56.035Z,7.80
2024-02-12T17:04:26.127Z,5.10
2024-02-12T17:06:56.099Z,6.00
2024-02-12T17:09:26.317Z,5.60
2024-02-12T17:11:56.165Z,4.10
2024-02-12T17:14:28.500Z,4.40
2024-02-12T17:16:58.326Z,7.70
2024-02-12T17:19:28.313Z,5.30
2024-02-12T17:21:58.074Z,6.10
2024-02-12T17:24:27.887Z,4.90
2024-02-12T17:26:57.636Z,4.90
2024-02-12T17:29:28.492Z,8.10
2024-02-12T17:31:58.919Z,4.90
2024-02-12T17:34:31.210Z,3.90
2024-02-12T17:37:01.357Z,5.10
2024-02-12T17:39:36.826Z,6.10
2024-02-12T17:42:10.116Z,6.50
2024-02-12T17:44:39.846Z,6.10
2024-02-12T17:47:12.415Z,5.20
2024-02-12T17:49:49.252Z,6.60
2024-02-12T17:52:25.054Z,7.40
2024-02-12T17:54:54.850Z,5.30
2024-02-12T17:57:27.289Z,11.10
2024-02-12T17:59:57.287Z,7.40
2024-02-12T18:02:27.423Z,7.20
2024-02-12T18:04:59.298Z,6.30
2024-02-12T18:07:32.715Z,9.80
2024-02-12T18:10:02.461Z,9.70
2024-02-12T18:12:35.528Z,6.90
2024-02-12T18:15:06.220Z,7.90
2024-02-12T18:17:39.019Z,7.20
2024-02-12T18:20:14.981Z,7.70
2024-02-12T18:22:44.843Z,7.20
2024-02-12T18:25:15.838Z,10.50
2024-02-12T18:27:46.822Z,7.50
2024-02-12T18:30:17.271Z,6.70
2024-02-12T18:32:49.170Z,6.40
2024-02-12T18:35:19.316Z,9.10
2024-02-12T18:37:51.407Z,7.90
2024-02-12T18:40:22.753Z,7.00
2024-02-12T18:42:54.979Z,5.30
2024-02-12T18:45:26.398Z,7.30
2024-02-12T18:48:00.799Z,9.20
2024-02-12T18:50:30.816Z,9.40
2024-02-12T18:53:02.140Z,8.80
2024-02-12T18:55:35.615Z,8.50
2024-02-12T18:58:07.983Z,12.20
2024-02-12T19:00:40.934Z,10.40
2024-02-12T19:03:11.584Z,13.80
2024-02-12T19:05:43.246Z,11.40
2024-02-12T19:08:16.751Z,11.30
2024-02-12T19:10:49.200Z,11.40
2024-02-12T19:13:21.214Z,14.50
2024-02-12T19:15:51.986Z,10.90
2024-02-12T19:18:25.321Z,10.40
2024-02-12T19:20:59.722Z,7.80
2024-02-12T19:23:29.500Z,10.30
2024-02-12T19:26:00.617Z,10.40
2024-02-12T19:28:30.786Z,10.60
2024-02-12T19:31:00.677Z,13.10
2024-02-12T19:33:31.270Z,10.80
2024-02-12T19:36:01.457Z,8.10
2024-02-12T19:38:31.300Z,10.80
2024-02-12T19:41:01.112Z,7.20
2024-02-12T19:43:30.943Z,11.50
2024-02-12T19:46:00.821Z,10.90
2024-02-12T19:48:31.149Z,9.90
2024-02-12T19:51:01.107Z,9.30
2024-02-12T19:53:31.174Z,10.10
2024-02-12T19:56:05.138Z,11.80
2024-02-12T19:58:35.581Z,10.20
2024-02-12T20:01:07.768Z,11.20
2024-02-12T20:03:37.978Z,10.60
2024-02-12T20:06:11.001Z,10.10
2024-02-12T20:08:42.480Z,11.00
2024-02-12T20:11:13.294Z,9.00
2024-02-12T20:13:45.368Z,11.10
2024-02-12T20:16:17.977Z,9.80
2024-02-12T20:18:47.955Z,8.90
2024-02-12T20:21:20.600Z,11.10
2024-02-12T20:23:50.485Z,8.50
2024-02-12T20:26:22.366Z,11.70
2024-02-12T20:28:54.772Z,9.80
2024-02-12T20:31:24.615Z,9.80
2024-02-12T20:33:54.696Z,9.20
2024-02-12T20:36:26.741Z,9.00
2024-02-12T20:38:56.622Z,8.10
2024-02-12T20:41:26.475Z,10.90
2024-02-12T20:43:56.267Z,9.90
2024-02-12T20:46:31.855Z,7.60
2024-02-12T20:49:07.701Z,7.80
2024-02-12T20:51:40.049Z,9.20
2024-02-12T20:54:12.661Z,8.40
2024-02-12T20:56:43.564Z,9.70
2024-02-12T20:59:14.309Z,10.60
2024-02-12T21:01:45.070Z,9.70
2024-02-12T21:04:14.890Z,11.00
2024-02-12T21:06:46.985Z,10.20
2024-02-12T21:09:19.971Z,9.50
2024-02-12T21:11:49.862Z,8.30
2024-02-12T21:14:24.423Z,8.10
2024-02-12T21:16:56.795Z,10.80
2024-02-12T21:19:28.710Z,8.20
2024-02-12T21:21:58.661Z,9.00
2024-02-12T21:24:28.482Z,9.10
2024-02-12T21:27:00.617Z,13.90
2024-02-12T21:29:30.663Z,9.40
2024-02-12T21:32:01.612Z,7.90
2024-02-12T21:34:36.430Z,9.10
2024-02-12T21:37:11.645Z,8.70
2024-02-12T21:39:47.041Z,6.80
2024-02-12T21:42:27.956Z,10.90
2024-02-12T21:44:59.904Z,12.40
2024-02-12T21:47:29.989Z,12.00
2024-02-12T21:49:59.960Z,9.00
2024-02-12T21:52:29.755Z,10.00
2024-02-12T21:54:59.484Z,10.10
2024-02-12T21:57:32.475Z,8.40
2024-02-12T22:00:08.445Z,8.70
2024-02-12T22:02:42.858Z,12.10
2024-02-12T22:05:12.914Z,12.50
2024-02-12T22:07:45.684Z,8.70
2024-02-12T22:10:17.686Z,10.30
2024-02-12T22:12:47.529Z,10.10
2024-02-12T22:15:17.494Z,9.20
2024-02-12T22:17:47.399Z,8.70
2024-02-12T22:20:20.047Z,9.80
2024-02-12T22:22:50.113Z,10.30
2024-02-12T22:25:22.144Z,8.10
2024-02-12T22:27:57.159Z,11.40
2024-02-12T22:32:59.049Z,8.90
2024-02-12T22:35:29.888Z,7.90
2024-02-12T22:38:00.083Z,11.10
2024-02-12T22:40:30.086Z,9.20
2024-02-12T22:42:59.954Z,10.70
2024-02-12T22:45:29.699Z,11.30
2024-02-12T22:48:02.583Z,8.50
2024-02-12T22:50:35.504Z,9.60
2024-02-12T22:53:05.698Z,10.50
2024-02-12T22:55:35.525Z,10.70
2024-02-12T22:58:09.564Z,9.00
2024-02-12T23:00:42.472Z,9.00
2024-02-12T23:03:14.257Z,10.70
2024-02-12T23:05:46.472Z,10.00
2024-02-12T23:08:16.794Z,8.90
2024-02-12T23:10:46.879Z,10.30
2024-02-12T23:13:18.169Z,11.00
2024-02-12T23:15:48.040Z,9.10
2024-02-12T23:18:18.565Z,12.80
2024-02-12T23:20:49.018Z,10.30
2024-02-12T23:23:18.929Z,8.20
2024-02-12T23:25:51.431Z,8.70
2024-02-12T23:28:23.916Z,9.60
2024-02-12T23:30:56.003Z,11.00
2024-02-12T23:33:26.855Z,8.90
2024-02-12T23:35:57.031Z,11.50
2024-02-12T23:38:30.653Z,13.00
2024-02-12T23:41:00.480Z,11.60
2024-02-12T23:43:30.791Z,11.80
2024-02-12T23:46:01.005Z,10.20
2024-02-12T23:48:32.722Z,13.40
2024-02-12T23:51:08.618Z,8.90
2024-02-12T23:53:42.826Z,9.40
2024-02-12T23:56:24.115Z,11.10
2024-02-12T23:58:54.169Z,8.60
